TimeCST,TemperatureF,Dew PointF,Humidity,Sea Level PressureIn,VisibilityMPH,Wind Direction,Wind SpeedMPH,Gust SpeedMPH,PrecipitationIn,Events,Conditions,WindDirDegrees,DateUTC
12:53 AM,37.0,26.1,65,30.18,10.0,Calm,Calm,-,N/A,,Overcast,0,2013-02-17 06:53:00
1:53 AM,39.0,23.0,53,30.17,10.0,Calm,Calm,-,N/A,,Overcast,0,2013-02-17 07:53:00
2:53 AM,37.9,24.1,57,30.17,10.0,Calm,Calm,-,N/A,,Overcast,0,2013-02-17 08:53:00
3:53 AM,37.0,26.1,65,30.16,10.0,Calm,Calm,-,N/A,,Overcast,0,2013-02-17 09:53:00
4:53 AM,36.0,25.0,64,30.15,10.0,Calm,Calm,-,N/A,,Overcast,0,2013-02-17 10:53:00
5:53 AM,37.0,18.0,46,30.16,10.0,SE,4.6,-,N/A,,Overcast,140,2013-02-17 11:53:00
6:53 AM,33.1,21.0,61,30.17,10.0,ESE,3.5,-,N/A,,Scattered Clouds,120,2013-02-17 12:53:00
7:53 AM,37.9,18.0,45,30.17,10.0,SE,3.5,-,N/A,,Mostly Cloudy,130,2013-02-17 13:53:00
8:53 AM,42.1,19.0,40,30.17,10.0,Variable,3.5,-,N/A,,Clear,0,2013-02-17 14:53:00
9:53 AM,45.0,18.0,34,30.16,10.0,Variable,4.6,-,N/A,,Clear,0,2013-02-17 15:53:00
10:53 AM,48.9,21.0,33,30.14,10.0,Variable,3.5,-,N/A,,Clear,0,2013-02-17 16:53:00
11:53 AM,51.1,24.1,35,30.10,10.0,Variable,3.5,-,N/A,,Clear,0,2013-02-17 17:53:00
12:53 PM,55.0,27.0,34,30.05,10.0,Variable,4.6,-,N/A,,Clear,0,2013-02-17 18:53:00
1:53 PM,57.0,28.9,34,30.01,10.0,Variable,5.8,-,N/A,,Clear,0,2013-02-17 19:53:00
2:53 PM,62.1,30.0,30,29.98,10.0,Variable,5.8,-,N/A,,Clear,0,2013-02-17 20:53:00
3:53 PM,64.9,30.0,27,29.96,10.0,South,5.8,-,N/A,,Clear,190,2013-02-17 21:53:00
4:53 PM,64.0,30.9,29,29.95,10.0,Variable,5.8,-,N/A,,Clear,0,2013-02-17 22:53:00
5:53 PM,60.1,32.0,35,29.95,10.0,Variable,3.5,-,N/A,,Scattered Clouds,0,2013-02-17 23:53:00
6:53 PM,50.0,35.1,57,29.96,10.0,Calm,Calm,-,N/A,,Clear,0,2013-02-18 00:53:00
7:53 PM,48.9,35.1,59,29.96,10.0,ESE,4.6,-,N/A,,Clear,110,2013-02-18 01:53:00
9:53 PM,52.0,34.0,50,29.95,10.0,East,4.6,-,N/A,,Clear,90,2013-02-18 03:53:00
11:53 PM,51.1,35.1,54,29.93,10.0,Calm,Calm,-,N/A,,Clear,0,2013-02-18 05:53:00